Time;durP1;ratioP1;P1;durP2;ratioP2;P2;SDS_P1;SDS_P2;PMS_P1;PMS_P2;Temp;Humidity;BMP_temperature;BMP_pressure;BME280_temperature;BME280_humidity;BME280_pressure;Samples;Min_cycle;Max_cycle;Signal;HPM_P1;HPM_P2
2021/01/01 00:00:45;;;;;;;16.27;13.43;;;17.40;56.80;;;;;;5096180;28;20173;-57
2021/01/01 00:03:10;;;;;;;15.35;13.77;;;17.40;56.20;;;;;;5104431;28;20192;-57
2021/01/01 00:05:37;;;;;;;15.70;14.00;;;17.40;56.20;;;;;;5084801;28;20970;-58
2021/01/01 00:08:03;;;;;;;17.27;13.93;;;17.30;56.20;;;;;;5084800;28;21076;-57
2021/01/01 00:10:29;;;;;;;15.70;13.98;;;17.30;56.20;;;;;;5084729;28;20185;-55
2021/01/01 00:12:54;;;;;;;15.43;13.77;;;17.30;56.20;;;;;;5084819;28;20178;-56
2021/01/01 00:15:20;;;;;;;15.35;13.75;;;17.30;56.20;;;;;;5084643;28;20190;-59
2021/01/01 00:17:45;;;;;;;16.08;14.45;;;17.30;56.20;;;;;;5084943;28;20201;-59
2021/01/01 00:20:11;;;;;;;18.42;14.88;;;17.30;56.20;;;;;;5084746;28;20174;-57
2021/01/01 00:22:37;;;;;;;16.05;14.40;;;17.20;56.10;;;;;;5084668;28;20277;-57
2021/01/01 00:25:06;;;;;;;17.42;14.48;;;17.20;56.20;;;;;;5084374;28;20198;-56
2021/01/01 00:27:31;;;;;;;16.23;14.27;;;17.20;56.10;;;;;;5084481;28;20217;-53
2021/01/01 00:29:57;;;;;;;17.17;15.40;;;17.20;56.10;;;;;;5084582;28;21108;-56
2021/01/01 00:32:23;;;;;;;15.30;13.70;;;17.20;56.20;;;;;;5084357;28;20170;-56
2021/01/01 00:34:49;;;;;;;15.55;13.95;;;17.10;56.10;;;;;;5084206;28;20170;-56
2021/01/01 00:37:14;;;;;;;17.02;14.65;;;17.10;56.10;;;;;;5084614;28;20260;-57
2021/01/01 00:39:40;;;;;;;16.33;14.65;;;17.10;56.10;;;;;;5083990;28;20173;-59
2021/01/01 00:42:06;;;;;;;16.88;14.95;;;17.10;56.10;;;;;;5084303;28;20196;-58
2021/01/01 00:44:32;;;;;;;17.20;14.35;;;17.10;56.10;;;;;;5084303;28;20173;-59
2021/01/01 00:46:58;;;;;;;17.92;16.02;;;17.10;56.10;;;;;;5083383;28;20196;-60
2021/01/01 00:49:24;;;;;;;18.50;15.63;;;17.10;56.10;;;;;;5084382;28;20527;-59
2021/01/01 00:51:49;;;;;;;16.27;14.57;;;17.10;56.10;;;;;;5084268;28;20165;-57
2021/01/01 00:54:15;;;;;;;15.57;13.98;;;17.00;56.10;;;;;;5083984;28;20181;-57
2021/01/01 00:56:40;;;;;;;16.50;14.80;;;17.00;56.10;;;;;;5083963;28;20185;-56
2021/01/01 00:59:06;;;;;;;17.02;14.65;;;17.00;56.10;;;;;;5083935;28;20277;-60
2021/01/01 01:01:31;;;;;;;16.13;14.52;;;17.00;56.10;;;;;;5084392;28;20647;-58
2021/01/01 01:03:57;;;;;;;16.10;14.50;;;17.00;56.10;;;;;;5084027;28;20547;-58
2021/01/01 01:06:24;;;;;;;15.88;14.38;;;17.00;56.10;;;;;;5084104;28;20200;-58
2021/01/01 01:08:49;;;;;;;16.90;15.10;;;17.00;56.10;;;;;;5083827;28;20254;-57
2021/01/01 01:11:15;;;;;;;16.60;14.90;;;16.90;56.10;;;;;;5084055;28;20177;-59
2021/01/01 01:13:41;;;;;;;15.90;14.30;;;16.90;56.10;;;;;;5066194;28;20182;-58
2021/01/01 01:16:06;;;;;;;16.60;14.93;;;16.90;56.10;;;;;;5084283;28;20200;-59
2021/01/01 01:18:32;;;;;;;17.20;15.38;;;16.90;56.10;;;;;;5084222;28;20204;-60
2021/01/01 01:20:58;;;;;;;16.67;14.90;;;16.90;56.10;;;;;;5084193;28;20197;-58
2021/01/01 01:23:24;;;;;;;16.48;14.88;;;16.80;56.10;;;;;;5084084;28;20174;-57
2021/01/01 01:25:49;;;;;;;15.93;14.43;;;16.90;56.10;;;;;;5083965;28;20245;-59
2021/01/01 01:28:15;;;;;;;17.20;15.40;;;16.80;56.10;;;;;;5066057;28;20735;-60
2021/01/01 01:30:41;;;;;;;17.50;15.77;;;16.80;56.10;;;;;;5084331;28;20256;-58
2021/01/01 01:33:08;;;;;;;16.52;14.93;;;16.80;56.70;;;;;;5084125;28;20203;-56
2021/01/01 01:35:33;;;;;;;17.33;15.52;;;16.80;56.10;;;;;;5084061;28;20626;-55
2021/01/01 01:37:59;;;;;;;16.15;14.55;;;16.80;56.10;;;;;;5084028;28;20178;-58
2021/01/01 01:40:26;;;;;;;17.77;15.98;;;16.80;56.30;;;;;;5084144;28;20213;-58
2021/01/01 01:42:52;;;;;;;16.52;14.88;;;16.70;56.10;;;;;;5083747;28;20178;-59
2021/01/01 01:45:17;;;;;;;17.50;15.70;;;16.70;56.00;;;;;;5083746;28;20193;-59
2021/01/01 01:47:43;;;;;;;18.45;16.58;;;16.70;56.00;;;;;;5083529;28;20285;-60
2021/01/01 01:50:09;;;;;;;17.73;15.85;;;16.70;56.00;;;;;;5082776;28;20246;-59
2021/01/01 01:52:35;;;;;;;17.55;15.75;;;16.70;56.00;;;;;;5065935;28;20569;-59
2021/01/01 01:55:01;;;;;;;18.20;16.35;;;16.70;56.00;;;;;;5065870;28;20207;-56
2021/01/01 01:57:27;;;;;;;18.15;16.20;;;16.70;56.00;;;;;;5085287;28;20170;-58
2021/01/01 01:59:56;;;;;;;20.40;17.58;;;16.70;56.10;;;;;;5087493;28;20176;-57
2021/01/01 02:02:22;;;;;;;19.00;16.77;;;16.60;56.00;;;;;;5087290;28;20182;-60
2021/01/01 02:04:48;;;;;;;18.52;16.60;;;16.60;56.00;;;;;;5087506;28;20643;-57
2021/01/01 02:07:13;;;;;;;18.23;16.42;;;16.60;56.00;;;;;;5087450;28;20201;-60
2021/01/01 02:09:39;;;;;;;19.08;17.10;;;16.60;56.00;;;;;;5069425;28;20593;-58
2021/01/01 02:12:06;;;;;;;18.23;16.42;;;16.60;55.90;;;;;;5087386;28;20178;-60
2021/01/01 02:14:32;;;;;;;19.73;17.73;;;16.60;55.90;;;;;;5087197;28;20239;-56
2021/01/01 02:16:57;;;;;;;19.92;17.75;;;16.60;55.90;;;;;;5068993;28;20407;-58
2021/01/01 02:19:23;;;;;;;19.38;17.38;;;16.60;55.80;;;;;;5086959;28;20209;-59
2021/01/01 02:21:49;;;;;;;21.40;19.33;;;16.50;55.80;;;;;;5086705;28;20177;-60
2021/01/01 02:24:15;;;;;;;20.73;18.50;;;16.60;55.70;;;;;;5086673;28;20165;-59
2021/01/01 02:26:40;;;;;;;20.05;17.98;;;16.60;55.80;;;;;;5086454;28;20591;-59
2021/01/01 02:29:06;;;;;;;21.08;18.90;;;16.60;55.80;;;;;;5086830;28;20209;-54
2021/01/01 02:31:31;;;;;;;20.10;18.08;;;16.50;55.70;;;;;;5087032;28;20671;-53
2021/01/01 02:33:57;;;;;;;20.17;18.13;;;16.50;55.80;;;;;;5086832;28;20912;-55
2021/01/01 02:36:23;;;;;;;20.63;18.52;;;16.50;55.70;;;;;;5086099;28;20541;-56
2021/01/01 02:38:48;;;;;;;20.55;18.35;;;16.50;55.80;;;;;;5068454;28;20177;-56
2021/01/01 02:41:14;;;;;;;21.75;19.65;;;16.50;55.80;;;;;;5086698;28;20231;-56
2021/01/01 02:43:39;;;;;;;21.48;19.27;;;16.50;55.70;;;;;;5086861;28;20185;-59
2021/01/01 02:46:05;;;;;;;22.17;19.88;;;16.50;55.70;;;;;;5086374;28;20177;-55
2021/01/01 02:48:30;;;;;;;20.40;18.40;;;16.50;55.70;;;;;;5086146;28;20590;-55
2021/01/01 02:50:56;;;;;;;21.75;19.55;;;16.40;55.70;;;;;;5086440;28;20226;-57
2021/01/01 02:53:22;;;;;;;20.98;18.88;;;16.40;55.60;;;;;;5086297;28;20273;-55
2021/01/01 02:55:48;;;;;;;21.50;19.25;;;16.40;55.60;;;;;;5085945;28;20582;-56
2021/01/01 02:58:14;;;;;;;21.38;19.27;;;16.40;55.50;;;;;;5086165;28;20177;-59
2021/01/01 03:00:40;;;;;;;21.48;19.38;;;16.40;55.50;;;;;;5086456;28;20174;-57
2021/01/01 03:03:05;;;;;;;22.35;20.00;;;16.40;55.50;;;;;;5085889;28;20265;-55
2021/01/01 03:05:31;;;;;;;21.33;19.25;;;16.40;56.10;;;;;;5086077;28;20180;-55
2021/01/01 03:07:57;;;;;;;21.70;19.50;;;16.40;55.50;;;;;;5085700;28;20296;-53
2021/01/01 03:10:22;;;;;;;21.50;19.40;;;16.40;55.50;;;;;;5085249;28;20579;-56
2021/01/01 03:12:48;;;;;;;21.85;19.73;;;16.40;55.40;;;;;;5085889;28;20178;-57
2021/01/01 03:15:14;;;;;;;22.45;20.15;;;16.30;55.40;;;;;;5086080;28;20178;-56
2021/01/01 03:17:39;;;;;;;23.35;20.98;;;16.30;55.40;;;;;;5085896;28;20174;-60
2021/01/01 03:20:05;;;;;;;22.35;20.05;;;16.30;55.30;;;;;;5085883;28;20632;-61
2021/01/01 03:22:31;;;;;;;22.75;20.45;;;16.30;55.30;;;;;;5085969;28;20281;-59
2021/01/01 03:24:57;;;;;;;22.70;20.60;;;16.30;55.30;;;;;;5086077;28;20272;-59
2021/01/01 03:27:22;;;;;;;23.23;20.98;;;16.30;55.60;;;;;;5086024;28;20201;-56
2021/01/01 03:29:48;;;;;;;22.05;19.92;;;16.30;55.30;;;;;;5085273;28;20249;-55
2021/01/01 03:32:13;;;;;;;22.65;20.40;;;16.30;55.40;;;;;;5085543;28;20174;-56
2021/01/01 03:34:39;;;;;;;25.05;21.83;;;16.20;55.30;;;;;;5085941;28;20177;-58
2021/01/01 03:37:05;;;;;;;22.90;20.60;;;16.20;55.20;;;;;;5085705;28;20642;-58
2021/01/01 03:39:30;;;;;;;22.23;20.05;;;16.20;55.20;;;;;;5085541;28;20666;-59
2021/01/01 03:41:56;;;;;;;23.38;21.02;;;16.20;55.30;;;;;;5085364;28;20186;-60
2021/01/01 03:44:21;;;;;;;23.10;20.88;;;16.20;55.30;;;;;;5085492;28;20182;-57
2021/01/01 03:46:47;;;;;;;22.45;20.17;;;16.20;55.30;;;;;;5085637;28;20177;-59
2021/01/01 03:49:12;;;;;;;22.83;20.45;;;16.20;55.20;;;;;;5085250;28;20568;-57
2021/01/01 03:51:38;;;;;;;24.52;22.05;;;16.10;55.20;;;;;;5085207;28;20174;-58
2021/01/01 03:54:04;;;;;;;21.65;19.65;;;16.20;55.20;;;;;;5084924;28;20197;-56
2021/01/01 03:56:29;;;;;;;22.45;20.10;;;16.20;55.30;;;;;;5085181;28;20182;-56
2021/01/01 03:58:55;;;;;;;24.30;21.88;;;16.20;55.30;;;;;;5085180;28;20227;-58
2021/01/01 04:01:20;;;;;;;23.58;21.20;;;16.20;55.20;;;;;;5084689;28;20218;-56
2021/01/01 04:03:46;;;;;;;23.95;21.55;;;16.10;55.30;;;;;;5066877;28;20959;-57
2021/01/01 04:06:11;;;;;;;23.67;21.27;;;16.10;55.20;;;;;;5084855;28;20794;-59
2021/01/01 04:08:37;;;;;;;23.70;21.27;;;16.10;55.10;;;;;;5084588;28;20262;-55
2021/01/01 04:11:02;;;;;;;24.02;21.52;;;16.10;55.20;;;;;;5084957;28;20242;-55
2021/01/01 04:13:29;;;;;;;23.48;21.17;;;16.10;55.20;;;;;;5084734;28;20174;-58
2021/01/01 04:15:54;;;;;;;24.15;21.52;;;16.10;55.30;;;;;;5084840;28;20238;-57
2021/01/01 04:18:20;;;;;;;24.75;22.15;;;16.10;55.20;;;;;;5084633;28;20207;-57
2021/01/01 04:20:46;;;;;;;23.27;20.88;;;16.00;55.20;;;;;;5083584;28;20295;-57
2021/01/01 04:23:11;;;;;;;24.65;22.25;;;16.10;55.20;;;;;;5084849;28;20178;-57
2021/01/01 04:25:37;;;;;;;23.58;21.23;;;16.10;55.10;;;;;;5084754;28;20190;-57
2021/01/01 04:28:02;;;;;;;23.80;21.52;;;16.10;55.10;;;;;;5084645;28;20210;-55
2021/01/01 04:30:28;;;;;;;24.33;21.73;;;16.00;55.00;;;;;;5084442;28;20173;-57
2021/01/01 04:32:53;;;;;;;23.60;21.30;;;16.00;55.10;;;;;;5084332;28;20227;-57
2021/01/01 04:35:19;;;;;;;23.50;21.25;;;16.00;55.10;;;;;;5084578;28;20177;-57
2021/01/01 04:37:44;;;;;;;25.08;22.60;;;16.00;55.00;;;;;;5084834;28;20651;-57
2021/01/01 04:40:10;;;;;;;24.65;22.10;;;15.90;55.00;;;;;;5084519;28;20185;-59
2021/01/01 04:42:36;;;;;;;23.60;21.30;;;16.00;55.00;;;;;;5084391;28;20177;-56
2021/01/01 04:45:04;;;;;;;24.30;21.95;;;16.00;55.00;;;;;;5084275;28;20649;-58
2021/01/01 04:47:29;;;;;;;23.90;21.40;;;15.90;55.00;;;;;;5083541;28;20659;-55
2021/01/01 04:49:55;;;;;;;24.73;22.25;;;16.00;55.60;;;;;;5066483;28;20174;-59
2021/01/01 04:52:20;;;;;;;24.35;21.85;;;15.90;54.90;;;;;;5084239;28;20722;-58
2021/01/01 04:54:46;;;;;;;24.65;22.35;;;15.90;55.00;;;;;;5083347;28;20531;-58
2021/01/01 04:57:12;;;;;;;25.02;22.58;;;15.80;54.90;;;;;;5066467;28;20525;-59
2021/01/01 04:59:37;;;;;;;22.88;20.52;;;15.90;55.00;;;;;;5084335;28;20276;-58
2021/01/01 05:02:03;;;;;;;25.33;22.73;;;15.90;55.00;;;;;;5084325;28;20686;-60
2021/01/01 05:04:29;;;;;;;24.88;22.27;;;15.90;55.00;;;;;;5083801;28;20177;-55
2021/01/01 05:06:57;;;;;;;23.90;21.50;;;15.90;55.00;;;;;;5084333;28;20195;-58
2021/01/01 05:09:23;;;;;;;23.95;21.55;;;15.90;55.00;;;;;;5083110;28;20679;-58
2021/01/01 05:11:48;;;;;;;26.27;23.48;;;15.90;55.00;;;;;;5084120;28;20169;-56
2021/01/01 05:14:14;;;;;;;24.83;22.40;;;15.90;55.00;;;;;;5084124;28;20512;-57
2021/01/01 05:16:39;;;;;;;24.30;21.88;;;15.90;55.00;;;;;;5084280;28;20181;-58
2021/01/01 05:19:12;;;;;;;25.38;22.88;;;15.90;55.00;;;;;;5083153;28;20177;-55
2021/01/01 05:21:38;;;;;;;25.98;23.38;;;15.90;55.00;;;;;;5083645;28;20186;-57
2021/01/01 05:24:05;;;;;;;25.00;22.45;;;15.80;55.00;;;;;;5084081;28;20181;-58
2021/01/01 05:26:30;;;;;;;23.98;21.63;;;15.90;55.00;;;;;;5080546;28;20305;-59
2021/01/01 05:29:01;;;;;;;24.00;21.63;;;15.80;54.90;;;;;;5067014;28;20226;-56
2021/01/01 05:31:28;;;;;;;24.10;21.70;;;15.80;55.60;;;;;;5083997;28;20181;-57
2021/01/01 05:33:59;;;;;;;24.90;22.50;;;15.80;54.90;;;;;;5087629;28;20642;-56
2021/01/01 05:36:34;;;;;;;24.35;21.80;;;15.80;54.90;;;;;;5087661;28;20184;-56
2021/01/01 05:39:01;;;;;;;24.35;22.02;;;15.80;54.90;;;;;;5087816;28;20276;-58
2021/01/01 05:41:28;;;;;;;24.23;21.83;;;15.80;55.00;;;;;;5087784;28;20170;-56
2021/01/01 05:44:16;;;;;;;24.98;22.48;;;15.80;55.00;;;;;;5087853;28;20186;-59
2021/01/01 05:46:56;;;;;;;24.10;21.77;;;15.80;55.00;;;;;;5087692;28;21002;-56
2021/01/01 05:49:42;;;;;;;25.13;22.83;;;15.70;54.80;;;;;;5087559;28;20209;-60
2021/01/01 05:52:17;;;;;;;24.92;22.60;;;15.70;54.90;;;;;;5087085;28;20186;-56
2021/01/01 05:54:48;;;;;;;24.55;22.15;;;15.70;54.80;;;;;;5087729;28;20169;-59
2021/01/01 05:57:14;;;;;;;24.60;22.20;;;15.70;54.80;;;;;;5088081;28;20174;-55
2021/01/01 05:59:47;;;;;;;25.65;23.15;;;15.70;54.90;;;;;;5087984;28;20701;-59
2021/01/01 06:02:12;;;;;;;24.60;22.00;;;15.70;54.80;;;;;;5087325;28;20178;-58
2021/01/01 06:04:38;;;;;;;23.98;21.67;;;15.80;55.00;;;;;;5087424;28;20235;-57
2021/01/01 06:07:09;;;;;;;23.20;20.98;;;15.90;55.20;;;;;;5087158;28;20204;-57
2021/01/01 06:09:35;;;;;;;23.05;20.88;;;16.00;55.10;;;;;;5087506;28;20205;-57
2021/01/01 06:12:08;;;;;;;23.25;20.92;;;16.30;55.00;;;;;;5087161;28;20177;-58
2021/01/01 06:14:39;;;;;;;22.40;20.17;;;16.60;54.50;;;;;;5068916;28;21047;-56
2021/01/01 06:17:04;;;;;;;21.70;19.35;;;17.00;53.90;;;;;;5087186;28;20987;-59
2021/01/01 06:19:36;;;;;;;22.20;19.95;;;17.40;53.10;;;;;;5086996;28;20173;-57
2021/01/01 06:22:04;;;;;;;20.95;18.95;;;17.80;52.50;;;;;;5086484;28;20174;-58
2021/01/01 06:24:29;;;;;;;21.10;19.02;;;18.00;52.10;;;;;;5069505;28;20276;-59
2021/01/01 06:26:55;;;;;;;21.20;19.10;;;18.20;51.60;;;;;;5085623;28;20253;-57
2021/01/01 06:29:20;;;;;;;21.25;19.27;;;18.40;51.30;;;;;;5052359;28;20220;-58
2021/01/01 06:31:46;;;;;;;21.38;19.38;;;18.50;51.20;;;;;;5068807;28;20181;-58
2021/01/01 06:34:24;;;;;;;20.77;18.77;;;18.60;51.10;;;;;;5087038;28;20662;-58
2021/01/01 06:36:50;;;;;;;19.90;18.00;;;18.60;51.70;;;;;;5068735;28;20535;-59
2021/01/01 06:39:35;;;;;;;19.65;17.77;;;18.70;51.10;;;;;;5086419;28;20189;-58
2021/01/01 06:42:01;;;;;;;20.85;18.83;;;18.70;51.10;;;;;;5086533;28;20192;-59
2021/01/01 06:44:34;;;;;;;18.92;17.15;;;18.60;51.10;;;;;;5085350;28;20185;-60
2021/01/01 06:46:59;;;;;;;19.73;17.83;;;18.60;51.20;;;;;;5086835;28;20238;-59
2021/01/01 06:49:38;;;;;;;19.45;17.55;;;18.60;51.20;;;;;;5086650;28;20213;-58
2021/01/01 06:52:16;;;;;;;19.15;17.38;;;18.60;51.30;;;;;;5086047;28;20178;-58
2021/01/01 06:54:58;;;;;;;19.38;17.45;;;18.50;51.40;;;;;;5086624;28;20254;-59
2021/01/01 06:57:29;;;;;;;19.23;17.40;;;18.50;51.50;;;;;;5086401;28;20635;-60
2021/01/01 06:59:55;;;;;;;19.20;17.45;;;18.50;51.60;;;;;;5086177;28;20170;-58
2021/01/01 07:02:30;;;;;;;20.00;18.10;;;18.40;51.60;;;;;;5086017;28;20181;-57
2021/01/01 07:04:56;;;;;;;19.73;17.75;;;18.50;51.60;;;;;;5086113;28;20185;-59
2021/01/01 07:07:40;;;;;;;19.45;17.55;;;18.40;51.60;;;;;;5086219;28;20297;-58
2021/01/01 07:10:07;;;;;;;18.58;16.77;;;18.50;51.70;;;;;;5085571;28;20181;-56
2021/01/01 07:12:32;;;;;;;19.40;17.60;;;18.50;51.70;;;;;;5085843;28;20534;-55
2021/01/01 07:14:58;;;;;;;19.25;17.35;;;18.40;51.70;;;;;;5085766;28;20223;-56
2021/01/01 07:17:24;;;;;;;19.95;17.95;;;18.40;51.70;;;;;;5086036;28;20170;-57
2021/01/01 07:19:49;;;;;;;18.15;16.40;;;18.40;51.80;;;;;;5085540;28;20181;-60
2021/01/01 07:22:15;;;;;;;18.70;16.80;;;18.40;51.90;;;;;;5085702;28;20557;-59
2021/01/01 07:24:44;;;;;;;19.88;17.98;;;18.30;51.90;;;;;;5085962;28;20182;-58
2021/01/01 07:27:09;;;;;;;18.40;16.60;;;18.20;52.10;;;;;;5085509;28;20288;-55
2021/01/01 07:29:35;;;;;;;18.90;17.08;;;18.10;52.30;;;;;;5085450;28;20602;-55
2021/01/01 07:32:00;;;;;;;19.52;17.58;;;18.00;52.50;;;;;;5085750;28;20178;-54
2021/01/01 07:34:26;;;;;;;19.58;17.70;;;17.90;52.60;;;;;;5085436;28;20181;-55
2021/01/01 07:36:53;;;;;;;19.15;17.35;;;17.90;52.70;;;;;;5085764;28;20265;-56
2021/01/01 07:39:19;;;;;;;18.88;16.98;;;17.90;52.80;;;;;;5067694;28;20178;-55
2021/01/01 07:41:45;;;;;;;18.80;17.05;;;17.90;52.80;;;;;;5084332;28;20173;-59
2021/01/01 07:44:10;;;;;;;18.17;16.52;;;17.90;52.70;;;;;;5085373;28;20173;-60
2021/01/01 07:46:36;;;;;;;18.92;17.08;;;17.90;52.70;;;;;;5085321;28;20176;-59
2021/01/01 07:49:01;;;;;;;19.50;17.63;;;18.00;53.30;;;;;;5085335;28;20216;-59
2021/01/01 07:51:27;;;;;;;19.13;17.33;;;18.00;52.60;;;;;;5085231;28;20170;-59
2021/01/01 07:53:58;;;;;;;19.38;17.50;;;18.00;52.50;;;;;;5085545;28;20564;-58
2021/01/01 07:56:23;;;;;;;18.98;17.08;;;18.00;52.50;;;;;;5085026;28;20170;-59
2021/01/01 07:58:49;;;;;;;19.05;17.17;;;18.10;52.50;;;;;;5085143;28;20178;-60
2021/01/01 08:01:16;;;;;;;18.77;16.98;;;18.10;52.40;;;;;;5085055;28;20682;-58
2021/01/01 08:03:41;;;;;;;19.48;17.67;;;18.00;52.50;;;;;;5067271;28;20178;-60
2021/01/01 08:06:07;;;;;;;18.20;16.50;;;18.00;52.60;;;;;;5084042;28;20178;-59
2021/01/01 08:08:33;;;;;;;19.85;17.85;;;17.90;52.70;;;;;;5084853;28;20294;-58
2021/01/01 08:10:58;;;;;;;19.05;17.25;;;17.80;53.50;;;;;;5084911;28;20273;-57
2021/01/01 08:13:25;;;;;;;19.13;17.23;;;17.70;52.90;;;;;;5084948;28;20180;-59
2021/01/01 08:15:52;;;;;;;19.65;17.75;;;17.70;53.10;;;;;;5084956;28;20174;-57
2021/01/01 08:18:21;;;;;;;20.23;18.27;;;17.60;53.10;;;;;;5084942;28;20173;-60
2021/01/01 08:21:08;;;;;;;19.10;17.20;;;17.60;53.10;;;;;;5084273;28;20311;-59
2021/01/01 08:23:44;;;;;;;19.00;17.20;;;17.70;53.30;;;;;;5084449;28;20256;-58
2021/01/01 08:26:10;;;;;;;19.73;17.77;;;17.70;53.00;;;;;;5066935;28;20260;-57
2021/01/01 08:28:35;;;;;;;20.63;18.52;;;17.70;53.00;;;;;;5066462;28;20354;-58
2021/01/01 08:31:02;;;;;;;18.92;17.15;;;17.80;53.00;;;;;;5084596;28;20177;-54
2021/01/01 08:33:39;;;;;;;19.63;17.80;;;17.80;52.90;;;;;;5084743;28;20213;-56
2021/01/01 08:36:09;;;;;;;20.63;18.58;;;17.80;52.90;;;;;;5084801;28;20196;-56
2021/01/01 08:38:35;;;;;;;21.50;19.40;;;17.70;52.90;;;;;;5084651;28;20172;-54
2021/01/01 08:41:01;;;;;;;19.75;17.83;;;17.70;53.00;;;;;;5084536;28;20268;-59
2021/01/01 08:43:27;;;;;;;21.02;18.98;;;17.60;53.10;;;;;;5084068;28;20660;-60
2021/01/01 08:45:53;;;;;;;19.92;17.92;;;17.50;53.30;;;;;;5084423;28;20169;-58
2021/01/01 08:48:18;;;;;;;20.05;18.02;;;17.50;53.40;;;;;;5084147;28;20453;-61
2021/01/01 08:50:45;;;;;;;20.45;18.45;;;17.50;53.40;;;;;;5084037;28;20175;-56
2021/01/01 08:53:11;;;;;;;21.35;19.35;;;17.50;53.30;;;;;;5084298;28;20177;-59
2021/01/01 08:55:37;;;;;;;21.05;19.05;;;17.50;53.40;;;;;;5084358;28;20170;-59
2021/01/01 08:58:13;;;;;;;20.30;18.33;;;17.60;53.30;;;;;;5084131;28;20951;-60
2021/01/01 09:00:40;;;;;;;20.70;18.60;;;17.70;53.20;;;;;;5084407;28;20166;-59
2021/01/01 09:03:06;;;;;;;20.23;18.23;;;17.70;53.20;;;;;;5084299;28;20166;-59
2021/01/01 09:05:32;;;;;;;21.45;19.35;;;17.60;53.10;;;;;;5084451;28;20250;-58
2021/01/01 09:08:10;;;;;;;21.90;19.65;;;17.60;53.30;;;;;;5086856;28;20205;-59
2021/01/01 09:10:40;;;;;;;20.88;18.85;;;17.50;53.30;;;;;;5088462;28;20639;-57
2021/01/01 09:13:23;;;;;;;21.33;19.17;;;17.50;53.40;;;;;;5088062;28;20184;-59
2021/01/01 09:16:00;;;;;;;20.80;18.90;;;17.40;53.60;;;;;;5088187;28;20646;-58
2021/01/01 09:18:26;;;;;;;20.95;19.05;;;17.40;53.60;;;;;;5088076;28;20183;-61
2021/01/01 09:20:51;;;;;;;21.05;19.05;;;17.40;53.60;;;;;;5088272;28;20219;-58
2021/01/01 09:23:17;;;;;;;21.10;19.02;;;17.40;54.20;;;;;;5069734;28;20184;-58
2021/01/01 09:25:43;;;;;;;21.52;19.42;;;17.40;53.50;;;;;;5088171;28;20531;-55
2021/01/01 09:28:12;;;;;;;20.42;18.42;;;17.50;53.40;;;;;;5087971;28;20616;-55
2021/01/01 09:30:38;;;;;;;21.80;19.65;;;17.40;53.40;;;;;;5087526;28;20178;-58
2021/01/01 09:33:06;;;;;;;21.58;19.55;;;17.40;53.40;;;;;;5087991;28;20176;-53
2021/01/01 09:35:31;;;;;;;21.42;19.38;;;17.40;53.50;;;;;;5088155;28;20678;-57
2021/01/01 09:37:58;;;;;;;22.02;19.92;;;17.40;53.50;;;;;;5087982;28;20174;-58
2021/01/01 09:40:25;;;;;;;21.13;19.13;;;17.30;53.60;;;;;;5087797;28;20173;-58
2021/01/01 09:42:51;;;;;;;21.73;19.52;;;17.30;53.70;;;;;;5087924;28;20170;-57
2021/01/01 09:45:17;;;;;;;21.00;18.95;;;17.20;53.80;;;;;;5087466;28;20202;-60
2021/01/01 09:47:42;;;;;;;20.13;18.20;;;17.30;53.80;;;;;;5087449;28;20210;-61
2021/01/01 09:50:08;;;;;;;21.67;19.58;;;17.30;53.80;;;;;;5087418;28;20615;-63
2021/01/01 09:52:35;;;;;;;21.85;19.58;;;17.30;53.90;;;;;;5086477;28;20631;-62
2021/01/01 09:55:00;;;;;;;20.92;18.83;;;17.40;53.80;;;;;;5087622;28;20189;-61
2021/01/01 09:57:26;;;;;;;21.60;19.60;;;17.40;53.70;;;;;;5087613;28;20173;-61
2021/01/01 09:59:51;;;;;;;21.63;19.33;;;17.40;53.60;;;;;;5087254;28;20198;-63
2021/01/01 10:02:17;;;;;;;20.83;18.83;;;17.40;53.60;;;;;;5069434;28;20170;-62
2021/01/01 10:04:43;;;;;;;20.48;18.58;;;17.40;53.70;;;;;;5087524;28;20518;-63
2021/01/01 10:07:08;;;;;;;20.17;18.17;;;17.30;53.80;;;;;;5087420;28;20173;-62
2021/01/01 10:09:34;;;;;;;21.48;19.30;;;17.30;53.70;;;;;;5087282;28;20219;-64
2021/01/01 10:12:03;;;;;;;20.60;18.60;;;17.30;53.90;;;;;;5087645;28;20249;-62
2021/01/01 10:14:29;;;;;;;19.02;17.20;;;17.20;53.90;;;;;;5087091;28;20178;-61
2021/01/01 10:16:54;;;;;;;21.02;18.85;;;17.30;54.00;;;;;;5086964;28;20239;-62
2021/01/01 10:19:20;;;;;;;21.60;19.42;;;17.30;54.00;;;;;;5087068;28;20181;-62
2021/01/01 10:21:45;;;;;;;19.23;17.33;;;17.30;54.00;;;;;;5087217;28;20186;-63
2021/01/01 10:24:11;;;;;;;20.20;18.20;;;17.40;53.90;;;;;;5087247;28;20260;-62
2021/01/01 10:26:36;;;;;;;19.38;17.58;;;17.30;53.80;;;;;;5087307;28;20215;-62
2021/01/01 10:29:02;;;;;;;18.77;16.95;;;17.30;53.80;;;;;;5086688;28;20220;-62
2021/01/01 10:31:27;;;;;;;19.27;17.35;;;17.30;53.90;;;;;;5086996;28;20645;-63
2021/01/01 10:33:53;;;;;;;19.23;17.42;;;17.20;53.80;;;;;;5087085;28;20177;-62
2021/01/01 10:36:19;;;;;;;19.65;17.75;;;17.20;53.80;;;;;;5086731;28;20177;-63
2021/01/01 10:38:44;;;;;;;19.60;17.73;;;17.20;54.10;;;;;;5068978;28;20193;-62
2021/01/01 10:41:13;;;;;;;19.00;17.20;;;17.20;54.40;;;;;;5086653;28;20170;-64
2021/01/01 10:43:39;;;;;;;19.92;17.85;;;17.20;54.40;;;;;;5086827;28;20162;-63
2021/01/01 10:46:05;;;;;;;17.85;16.27;;;17.20;55.10;;;;;;5068428;28;20176;-64
2021/01/01 10:48:30;;;;;;;18.27;16.42;;;17.30;54.50;;;;;;5086651;28;20215;-64
2021/01/01 10:50:56;;;;;;;19.55;17.40;;;17.30;54.50;;;;;;5068443;28;20624;-62
2021/01/01 10:53:21;;;;;;;18.88;16.98;;;17.40;54.50;;;;;;5086682;28;20178;-63
2021/01/01 10:55:50;;;;;;;17.63;15.80;;;17.30;54.50;;;;;;5086332;28;20205;-64
2021/01/01 10:58:25;;;;;;;17.80;15.98;;;17.40;54.50;;;;;;5086204;28;20586;-62
2021/01/01 11:00:53;;;;;;;17.88;16.08;;;17.40;54.60;;;;;;5086044;28;20248;-64
2021/01/01 11:03:19;;;;;;;17.48;15.88;;;17.30;54.60;;;;;;5068082;28;20182;-62
2021/01/01 11:05:45;;;;;;;16.77;15.25;;;17.30;54.70;;;;;;5068292;28;20177;-63
2021/01/01 11:08:11;;;;;;;18.40;16.60;;;17.30;54.80;;;;;;5085952;28;20212;-62
2021/01/01 11:10:36;;;;;;;17.92;16.15;;;17.30;55.10;;;;;;5085951;28;20178;-61
2021/01/01 11:13:04;;;;;;;17.50;15.90;;;17.30;54.90;;;;;;5085750;28;20181;-60
2021/01/01 12:26:40;;;;;;;14.15;12.68;;;17.20;55.40;;;;;;5084748;28;20188;-63
2021/01/01 12:29:06;;;;;;;15.07;12.63;;;17.20;55.70;;;;;;5084418;28;20218;-63
2021/01/01 12:31:31;;;;;;;14.68;13.13;;;17.10;55.80;;;;;;5083019;28;20181;-63
2021/01/01 12:33:57;;;;;;;15.23;12.48;;;17.10;55.80;;;;;;5084787;28;20178;-65
2021/01/01 12:36:22;;;;;;;14.35;12.85;;;17.20;55.90;;;;;;5066571;28;20178;-63
2021/01/01 12:38:48;;;;;;;14.90;13.18;;;17.20;55.80;;;;;;5089667;28;20184;-65
2021/01/01 12:41:13;;;;;;;14.80;12.25;;;17.20;55.70;;;;;;5088276;28;20178;-65
2021/01/01 12:43:39;;;;;;;14.77;12.32;;;17.20;55.60;;;;;;5101774;28;20225;-64
2021/01/01 12:46:05;;;;;;;15.88;12.77;;;17.20;55.70;;;;;;5102286;28;20218;-64
2021/01/01 12:48:30;;;;;;;13.88;12.23;;;17.20;55.70;;;;;;5066598;28;20466;-65
2021/01/01 12:50:56;;;;;;;13.20;11.85;;;17.10;55.70;;;;;;5049463;28;20277;-64
2021/01/01 12:53:21;;;;;;;13.25;11.93;;;17.10;55.70;;;;;;5084403;28;20751;-65
2021/01/01 12:55:47;;;;;;;13.07;11.50;;;17.10;55.70;;;;;;5096300;28;20719;-63
2021/01/01 12:58:12;;;;;;;15.23;12.95;;;17.10;55.80;;;;;;5104453;28;20207;-65
2021/01/01 13:00:38;;;;;;;13.23;11.85;;;17.10;55.90;;;;;;5104343;28;20268;-65
2021/01/01 13:03:04;;;;;;;12.77;11.50;;;17.10;55.70;;;;;;5103963;28;20169;-64
2021/01/01 13:05:29;;;;;;;12.63;11.43;;;17.20;55.70;;;;;;5103975;28;20258;-65
2021/01/01 13:07:55;;;;;;;12.15;10.95;;;17.20;55.60;;;;;;5104155;28;20261;-65
2021/01/01 13:10:21;;;;;;;12.65;11.35;;;17.30;55.50;;;;;;5086039;28;20184;-64
2021/01/01 13:12:46;;;;;;;12.70;11.43;;;17.30;55.30;;;;;;5092588;28;20207;-64
2021/01/01 13:15:12;;;;;;;12.07;10.88;;;17.40;55.30;;;;;;5084227;28;20951;-64
2021/01/01 13:17:37;;;;;;;11.35;10.25;;;17.40;55.10;;;;;;5084214;28;20196;-64
2021/01/01 13:20:04;;;;;;;12.15;10.95;;;17.50;55.00;;;;;;5083542;28;20174;-65
2021/01/01 13:22:29;;;;;;;12.65;11.23;;;17.50;55.00;;;;;;5083760;28;20186;-65
2021/01/01 13:24:55;;;;;;;12.30;11.02;;;17.50;55.00;;;;;;5083558;28;20189;-64
2021/01/01 13:27:25;;;;;;;12.38;11.15;;;17.50;55.10;;;;;;5083345;28;20200;-64
2021/01/01 13:29:52;;;;;;;12.15;10.88;;;17.40;55.10;;;;;;5083998;28;20384;-63
2021/01/01 13:32:18;;;;;;;11.55;10.38;;;17.40;55.20;;;;;;5083775;28;20169;-65
2021/01/01 13:34:44;;;;;;;11.30;10.10;;;17.40;55.20;;;;;;5083736;28;20234;-63
2021/01/01 13:37:09;;;;;;;11.18;10.07;;;17.40;55.00;;;;;;5083498;28;20178;-65